Pagrindinis puslapis
METAR-TAF:

METAR-TAF

Oro uostai :

For de Fransas, Martinika

platuma: 14-36N, ilguma: 061-00W, Aukštis: 5 m

Dabartinis oras

Ataskaita buvo paskelbta 19 minutes, ne 16:30 UTC
Vėjas 8 kt iš Pietvakarių, svyruoja nuo Pietų/Pietvakarių ir Vakarų
Temperatūra 33°C
Drėgmė 63%
Slėgis 1012 hPa
Matomumas 10 km arba daugiau
Mažai debesys ne aukštis 3400 ft

METAR: TFFF 201630Z AUTO 23008KT 200V260 9999 FEW034 33/25 Q1012 NOSIG

Laikas: 12:49 (16:49 UTC)

Prognozė

Ataskaita buvo paskelbta 5 valandos ir 49 minutes, ne 11:00 UTC
Prognozė galioja nuo 20 metu 12 UTC su 21 metu 12 UTC
Vėjas 8 kt iš Pietryčių
Matomumas 10 km arba daugiau
Išsisklaidę debesys ne aukštis 2500 ft
Tikimybė 30% :
Laikinai
nuo 21 metu 08 UTC su 21 metu 12 UTC
Matomumas: 4000 m
Išsisklaidę debesys ne aukštis 2000 ft, aukštai iškilę kamuoliniai debesys.
lietus

TAF: TFFF 201100Z 2012/2112 14008KT 9999 SCT025 PROB30 TEMPO 2108/2112 4000 SHRA SCT020TCU

Orai ataskaitas ir orų prognozės (METAR, TAF).

turimą stotys yra geltonos ir raudonos taškus žemėlapyje.

Perkelti pele per norėdami pamatyti stoties vardą.

Tada spustelėkite, norėdami matyti oro stebėjimo ir prognozės.

Norėdami pakeisti žemėlapį: spustelėkite ant žalios mygtukų su juodo kryžiaus žemyn,; žalią mygtuką su brūkšneliu, jei norite nutolinti; arba žalių rodyklių gretimoms žemėlapius.


METAR-TAF: